sensor_id;sensor_type;location;lat;lon;timestamp;P1;P2;P0
79117;PMS7003;68523;51.336;-0.846;2023-04-15T00:02:37;7;3;
79117;PMS7003;68523;51.336;-0.846;2023-04-15T00:08:01;9;9;
79117;PMS7003;68523;51.336;-0.846;2023-04-15T00:13:04;12;8;
79117;PMS7003;68523;51.336;-0.846;2023-04-15T00:18:33;10;10;
79117;PMS7003;68523;51.336;-0.846;2023-04-15T00:23:36;6;6;
79117;PMS7003;68523;51.336;-0.846;2023-04-15T00:29:05;12;10;
79117;PMS7003;68523;51.336;-0.846;2023-04-15T00:34:34;7;5;
79117;PMS7003;68523;51.336;-0.846;2023-04-15T00:39:37;10;7;
79117;PMS7003;68523;51.336;-0.846;2023-04-15T00:45:01;19;12;
79117;PMS7003;68523;51.336;-0.846;2023-04-15T00:50:04;13;11;
79117;PMS7003;68523;51.336;-0.846;2023-04-15T00:55:34;11;11;
79117;PMS7003;68523;51.336;-0.846;2023-04-15T01:01:04;7;7;
79117;PMS7003;68523;51.336;-0.846;2023-04-15T01:06:33;7;7;
79117;PMS7003;68523;51.336;-0.846;2023-04-15T01:11:36;9;9;
79117;PMS7003;68523;51.336;-0.846;2023-04-15T01:17:00;8;8;
79117;PMS7003;68523;51.336;-0.846;2023-04-15T01:22:03;12;7;
79117;PMS7003;68523;51.336;-0.846;2023-04-15T01:27:33;5;5;
79117;PMS7003;68523;51.336;-0.846;2023-04-15T01:32:36;11;6;
79117;PMS7003;68523;51.336;-0.846;2023-04-15T01:38:06;15;12;
79117;PMS7003;68523;51.336;-0.846;2023-04-15T01:43:37;12;10;
79117;PMS7003;68523;51.336;-0.846;2023-04-15T01:49:00;10;8;
79117;PMS7003;68523;51.336;-0.846;2023-04-15T01:54:03;17;13;
79117;PMS7003;68523;51.336;-0.846;2023-04-15T01:59:32;15;14;
79117;PMS7003;68523;51.336;-0.846;2023-04-15T02:04:35;19;19;
79117;PMS7003;68523;51.336;-0.846;2023-04-15T02:10:05;18;12;
79117;PMS7003;68523;51.336;-0.846;2023-04-15T02:15:34;17;17;
79117;PMS7003;68523;51.336;-0.846;2023-04-15T02:20:37;11;11;
79117;PMS7003;68523;51.336;-0.846;2023-04-15T02:26:01;14;11;
79117;PMS7003;68523;51.336;-0.846;2023-04-15T02:31:04;16;15;
79117;PMS7003;68523;51.336;-0.846;2023-04-15T02:36:34;10;10;
79117;PMS7003;68523;51.336;-0.846;2023-04-15T02:41:37;22;10;
79117;PMS7003;68523;51.336;-0.846;2023-04-15T02:47:01;17;13;
79117;PMS7003;68523;51.336;-0.846;2023-04-15T02:52:03;28;18;
79117;PMS7003;68523;51.336;-0.846;2023-04-15T02:57:33;20;13;
79117;PMS7003;68523;51.336;-0.846;2023-04-15T03:02:36;15;13;
79117;PMS7003;68523;51.336;-0.846;2023-04-15T03:08:01;24;18;
79117;PMS7003;68523;51.336;-0.846;2023-04-15T03:13:04;11;11;
79117;PMS7003;68523;51.336;-0.846;2023-04-15T03:18:33;13;10;
79117;PMS7003;68523;51.336;-0.846;2023-04-15T03:23:36;23;19;
79117;PMS7003;68523;51.336;-0.846;2023-04-15T03:29:05;23;17;
79117;PMS7003;68523;51.336;-0.846;2023-04-15T03:34:34;17;17;
79117;PMS7003;68523;51.336;-0.846;2023-04-15T03:39:37;23;19;
79117;PMS7003;68523;51.336;-0.846;2023-04-15T03:45:01;21;15;
79117;PMS7003;68523;51.336;-0.846;2023-04-15T03:50:04;18;17;
79117;PMS7003;68523;51.336;-0.846;2023-04-15T03:55:34;17;17;
79117;PMS7003;68523;51.336;-0.846;2023-04-15T04:00:37;14;13;
79117;PMS7003;68523;51.336;-0.846;2023-04-15T04:06:01;36;28;
79117;PMS7003;68523;51.336;-0.846;2023-04-15T04:11:04;25;19;
79117;PMS7003;68523;51.336;-0.846;2023-04-15T04:16:33;23;20;
79117;PMS7003;68523;51.336;-0.846;2023-04-15T04:21:36;16;16;
79117;PMS7003;68523;51.336;-0.846;2023-04-15T04:27:05;20;19;
79117;PMS7003;68523;51.336;-0.846;2023-04-15T04:32:35;7;7;
79117;PMS7003;68523;51.336;-0.846;2023-04-15T04:37:37;28;20;
79117;PMS7003;68523;51.336;-0.846;2023-04-15T04:43:01;25;18;
79117;PMS7003;68523;51.336;-0.846;2023-04-15T04:48:05;26;24;
79117;PMS7003;68523;51.336;-0.846;2023-04-15T04:53:34;23;22;
79117;PMS7003;68523;51.336;-0.846;2023-04-15T04:58:37;26;20;
79117;PMS7003;68523;51.336;-0.846;2023-04-15T05:04:01;22;13;
79117;PMS7003;68523;51.336;-0.846;2023-04-15T05:09:04;32;22;
79117;PMS7003;68523;51.336;-0.846;2023-04-15T05:14:33;15;14;
79117;PMS7003;68523;51.336;-0.846;2023-04-15T05:19:36;22;22;
79117;PMS7003;68523;51.336;-0.846;2023-04-15T05:25:05;18;15;
79117;PMS7003;68523;51.336;-0.846;2023-04-15T05:30:35;32;24;
79117;PMS7003;68523;51.336;-0.846;2023-04-15T05:36:04;19;19;
79117;PMS7003;68523;51.336;-0.846;2023-04-15T05:41:33;28;23;
79117;PMS7003;68523;51.336;-0.846;2023-04-15T05:46:36;26;21;
79117;PMS7003;68523;51.336;-0.846;2023-04-15T05:52:01;28;20;
79117;PMS7003;68523;51.336;-0.846;2023-04-15T05:57:04;19;19;
79117;PMS7003;68523;51.336;-0.846;2023-04-15T06:02:33;26;18;
79117;PMS7003;68523;51.336;-0.846;2023-04-15T06:07:36;33;28;
79117;PMS7003;68523;51.336;-0.846;2023-04-15T06:13:05;34;24;
79117;PMS7003;68523;51.336;-0.846;2023-04-15T06:18:35;30;24;
79117;PMS7003;68523;51.336;-0.846;2023-04-15T06:24:04;20;20;
79117;PMS7003;68523;51.336;-0.846;2023-04-15T06:29:34;33;23;
79117;PMS7003;68523;51.336;-0.846;2023-04-15T06:34:36;31;22;
79117;PMS7003;68523;51.336;-0.846;2023-04-15T06:40:00;29;24;
79117;PMS7003;68523;51.336;-0.846;2023-04-15T06:45:03;33;22;
79117;PMS7003;68523;51.336;-0.846;2023-04-15T06:50:33;19;19;
79117;PMS7003;68523;51.336;-0.846;2023-04-15T06:55:36;39;20;
79117;PMS7003;68523;51.336;-0.846;2023-04-15T07:01:00;33;20;
79117;PMS7003;68523;51.336;-0.846;2023-04-15T07:06:04;20;17;
79117;PMS7003;68523;51.336;-0.846;2023-04-15T07:11:33;30;26;
79117;PMS7003;68523;51.336;-0.846;2023-04-15T07:16:36;25;17;
79117;PMS7003;68523;51.336;-0.846;2023-04-15T07:22:05;17;17;
79117;PMS7003;68523;51.336;-0.846;2023-04-15T07:27:34;42;20;
79117;PMS7003;68523;51.336;-0.846;2023-04-15T07:32:37;26;26;
79117;PMS7003;68523;51.336;-0.846;2023-04-15T07:38:01;37;24;
79117;PMS7003;68523;51.336;-0.846;2023-04-15T07:43:03;18;18;
79117;PMS7003;68523;51.336;-0.846;2023-04-15T07:48:32;18;16;
79117;PMS7003;68523;51.336;-0.846;2023-04-15T07:53:35;15;13;
79117;PMS7003;68523;51.336;-0.846;2023-04-15T07:59:04;25;18;
79117;PMS7003;68523;51.336;-0.846;2023-04-15T08:04:33;14;12;
79117;PMS7003;68523;51.336;-0.846;2023-04-15T08:09:35;14;12;
79117;PMS7003;68523;51.336;-0.846;2023-04-15T08:15:05;18;14;
79117;PMS7003;68523;51.336;-0.846;2023-04-15T08:20:35;9;9;
79117;PMS7003;68523;51.336;-0.846;2023-04-15T08:26:04;18;9;
79117;PMS7003;68523;51.336;-0.846;2023-04-15T08:31:33;13;13;
79117;PMS7003;68523;51.336;-0.846;2023-04-15T08:36:36;6;6;
79117;PMS7003;68523;51.336;-0.846;2023-04-15T08:42:06;10;9;
79117;PMS7003;68523;51.336;-0.846;2023-04-15T08:47:33;11;9;
79117;PMS7003;68523;51.336;-0.846;2023-04-15T08:52:33;10;7;
79117;PMS7003;68523;51.336;-0.846;2023-04-15T08:57:36;8;4;
79117;PMS7003;68523;51.336;-0.846;2023-04-15T09:03:06;9;8;
79117;PMS7003;68523;51.336;-0.846;2023-04-15T09:08:36;13;13;
79117;PMS7003;68523;51.336;-0.846;2023-04-15T09:14:05;7;7;
79117;PMS7003;68523;51.336;-0.846;2023-04-15T09:19:34;6;6;
79117;PMS7003;68523;51.336;-0.846;2023-04-15T09:24:37;9;9;
79117;PMS7003;68523;51.336;-0.846;2023-04-15T09:30:02;12;6;
79117;PMS7003;68523;51.336;-0.846;2023-04-15T09:35:10;8;8;
79117;PMS7003;68523;51.336;-0.846;2023-04-15T09:40:34;10;7;
79117;PMS7003;68523;51.336;-0.846;2023-04-15T09:46:04;5;5;
79117;PMS7003;68523;51.336;-0.846;2023-04-15T09:51:33;6;6;
79117;PMS7003;68523;51.336;-0.846;2023-04-15T09:56:37;13;8;
79117;PMS7003;68523;51.336;-0.846;2023-04-15T10:02:03;5;5;
79117;PMS7003;68523;51.336;-0.846;2023-04-15T10:07:33;7;5;
79117;PMS7003;68523;51.336;-0.846;2023-04-15T10:12:36;3;3;
79117;PMS7003;68523;51.336;-0.846;2023-04-15T10:17:36;8;7;
79117;PMS7003;68523;51.336;-0.846;2023-04-15T10:22:37;9;4;
79117;PMS7003;68523;51.336;-0.846;2023-04-15T10:28:02;9;6;
79117;PMS7003;68523;51.336;-0.846;2023-04-15T10:33:05;6;6;
79117;PMS7003;68523;51.336;-0.846;2023-04-15T10:38:37;4;4;
79117;PMS7003;68523;51.336;-0.846;2023-04-15T10:44:03;6;6;
79117;PMS7003;68523;51.336;-0.846;2023-04-15T10:49:32;2;2;
79117;PMS7003;68523;51.336;-0.846;2023-04-15T10:54:35;6;4;
79117;PMS7003;68523;51.336;-0.846;2023-04-15T10:59:38;4;2;
79117;PMS7003;68523;51.336;-0.846;2023-04-15T11:05:01;5;5;
79117;PMS7003;68523;51.336;-0.846;2023-04-15T11:20:34;6;6;
79117;PMS7003;68523;51.336;-0.846;2023-04-15T11:25:36;7;5;
79117;PMS7003;68523;51.336;-0.846;2023-04-15T11:31:06;4;4;
79117;PMS7003;68523;51.336;-0.846;2023-04-15T11:36:36;7;7;
79117;PMS7003;68523;51.336;-0.846;2023-04-15T11:42:15;3;3;
79117;PMS7003;68523;51.336;-0.846;2023-04-15T11:47:34;6;6;
79117;PMS7003;68523;51.336;-0.846;2023-04-15T11:52:37;4;4;
79117;PMS7003;68523;51.336;-0.846;2023-04-15T11:58:08;6;6;
79117;PMS7003;68523;51.336;-0.846;2023-04-15T12:03:15;3;3;
79117;PMS7003;68523;51.336;-0.846;2023-04-15T12:08:03;22;20;
79117;PMS7003;68523;51.336;-0.846;2023-04-15T12:13:33;8;8;
79117;PMS7003;68523;51.336;-0.846;2023-04-15T12:18:36;6;6;
79117;PMS7003;68523;51.336;-0.846;2023-04-15T12:24:06;4;4;
79117;PMS7003;68523;51.336;-0.846;2023-04-15T12:29:37;8;8;
79117;PMS7003;68523;51.336;-0.846;2023-04-15T12:35:01;9;8;
79117;PMS7003;68523;51.336;-0.846;2023-04-15T12:40:04;5;5;
79117;PMS7003;68523;51.336;-0.846;2023-04-15T12:45:05;7;7;
79117;PMS7003;68523;51.336;-0.846;2023-04-15T12:50:34;8;8;
79117;PMS7003;68523;51.336;-0.846;2023-04-15T12:55:37;11;9;
79117;PMS7003;68523;51.336;-0.846;2023-04-15T13:01:01;1;1;
79117;PMS7003;68523;51.336;-0.846;2023-04-15T13:06:03;11;7;
79117;PMS7003;68523;51.336;-0.846;2023-04-15T13:11:33;15;8;
79117;PMS7003;68523;51.336;-0.846;2023-04-15T13:16:36;5;5;
79117;PMS7003;68523;51.336;-0.846;2023-04-15T13:22:05;6;6;
79117;PMS7003;68523;51.336;-0.846;2023-04-15T13:27:34;9;9;
79117;PMS7003;68523;51.336;-0.846;2023-04-15T13:32:36;10;6;
79117;PMS7003;68523;51.336;-0.846;2023-04-15T13:38:05;8;8;
79117;PMS7003;68523;51.336;-0.846;2023-04-15T13:43:34;5;5;
79117;PMS7003;68523;51.336;-0.846;2023-04-15T13:48:37;14;14;
79117;PMS7003;68523;51.336;-0.846;2023-04-15T13:54:05;3;3;
79117;PMS7003;68523;51.336;-0.846;2023-04-15T13:59:34;10;8;
79117;PMS7003;68523;51.336;-0.846;2023-04-15T14:04:37;4;4;
79117;PMS7003;68523;51.336;-0.846;2023-04-15T14:10:01;6;6;
79117;PMS7003;68523;51.336;-0.846;2023-04-15T14:15:04;9;6;
79117;PMS7003;68523;51.336;-0.846;2023-04-15T14:20:35;20;20;
79117;PMS7003;68523;51.336;-0.846;2023-04-15T14:26:04;10;8;
79117;PMS7003;68523;51.336;-0.846;2023-04-15T14:31:33;7;5;
79117;PMS7003;68523;51.336;-0.846;2023-04-15T14:36:36;8;8;
79117;PMS7003;68523;51.336;-0.846;2023-04-15T14:42:05;9;9;
79117;PMS7003;68523;51.336;-0.846;2023-04-15T14:47:34;10;10;
79117;PMS7003;68523;51.336;-0.846;2023-04-15T14:52:37;7;7;
79117;PMS7003;68523;51.336;-0.846;2023-04-15T14:58:01;5;5;
79117;PMS7003;68523;51.336;-0.846;2023-04-15T15:03:03;11;11;
79117;PMS7003;68523;51.336;-0.846;2023-04-15T15:08:32;7;7;
79117;PMS7003;68523;51.336;-0.846;2023-04-15T15:13:35;4;4;
79117;PMS7003;68523;51.336;-0.846;2023-04-15T15:19:04;3;3;
79117;PMS7003;68523;51.336;-0.846;2023-04-15T15:24:33;5;4;
79117;PMS7003;68523;51.336;-0.846;2023-04-15T15:29:36;5;5;
79117;PMS7003;68523;51.336;-0.846;2023-04-15T15:35:05;6;6;
79117;PMS7003;68523;51.336;-0.846;2023-04-15T15:40:35;5;5;
79117;PMS7003;68523;51.336;-0.846;2023-04-15T15:45:37;4;4;
79117;PMS7003;68523;51.336;-0.846;2023-04-15T15:51:01;4;4;
79117;PMS7003;68523;51.336;-0.846;2023-04-15T15:56:04;4;4;
79117;PMS7003;68523;51.336;-0.846;2023-04-15T16:01:33;4;4;
79117;PMS7003;68523;51.336;-0.846;2023-04-15T16:06:36;6;6;
79117;PMS7003;68523;51.336;-0.846;2023-04-15T16:12:05;7;7;
79117;PMS7003;68523;51.336;-0.846;2023-04-15T16:17:34;8;8;
79117;PMS7003;68523;51.336;-0.846;2023-04-15T16:22:37;7;7;
79117;PMS7003;68523;51.336;-0.846;2023-04-15T16:28:01;4;4;
79117;PMS7003;68523;51.336;-0.846;2023-04-15T16:33:04;4;4;
79117;PMS7003;68523;51.336;-0.846;2023-04-15T16:38:34;7;4;
79117;PMS7003;68523;51.336;-0.846;2023-04-15T16:43:36;7;5;
79117;PMS7003;68523;51.336;-0.846;2023-04-15T16:49:05;5;5;
79117;PMS7003;68523;51.336;-0.846;2023-04-15T16:54:34;6;6;
79117;PMS7003;68523;51.336;-0.846;2023-04-15T16:59:36;8;5;
79117;PMS7003;68523;51.336;-0.846;2023-04-15T17:05:00;5;5;
79117;PMS7003;68523;51.336;-0.846;2023-04-15T17:10:03;6;6;
79117;PMS7003;68523;51.336;-0.846;2023-04-15T17:15:33;9;6;
79117;PMS7003;68523;51.336;-0.846;2023-04-15T17:20:35;5;5;
79117;PMS7003;68523;51.336;-0.846;2023-04-15T17:26:00;8;8;
79117;PMS7003;68523;51.336;-0.846;2023-04-15T17:31:03;6;6;
79117;PMS7003;68523;51.336;-0.846;2023-04-15T17:36:32;4;4;
79117;PMS7003;68523;51.336;-0.846;2023-04-15T17:41:35;5;5;
79117;PMS7003;68523;51.336;-0.846;2023-04-15T17:46:37;7;3;
79117;PMS7003;68523;51.336;-0.846;2023-04-15T17:52:01;7;7;
79117;PMS7003;68523;51.336;-0.846;2023-04-15T17:57:04;8;4;
79117;PMS7003;68523;51.336;-0.846;2023-04-15T18:02:32;5;5;
79117;PMS7003;68523;51.336;-0.846;2023-04-15T18:07:35;5;5;
79117;PMS7003;68523;51.336;-0.846;2023-04-15T18:13:04;4;4;
79117;PMS7003;68523;51.336;-0.846;2023-04-15T18:18:33;5;5;
79117;PMS7003;68523;51.336;-0.846;2023-04-15T18:23:36;3;3;
79117;PMS7003;68523;51.336;-0.846;2023-04-15T18:29:01;15;14;
79117;PMS7003;68523;51.336;-0.846;2023-04-15T18:34:04;18;18;
79117;PMS7003;68523;51.336;-0.846;2023-04-15T18:39:33;11;11;
79117;PMS7003;68523;51.336;-0.846;2023-04-15T18:44:35;8;8;
79117;PMS7003;68523;51.336;-0.846;2023-04-15T18:50:05;15;13;
79117;PMS7003;68523;51.336;-0.846;2023-04-15T18:55:35;8;8;
79117;PMS7003;68523;51.336;-0.846;2023-04-15T19:01:01;10;5;
79117;PMS7003;68523;51.336;-0.846;2023-04-15T19:06:04;4;4;
79117;PMS7003;68523;51.336;-0.846;2023-04-15T19:11:33;2;2;
79117;PMS7003;68523;51.336;-0.846;2023-04-15T19:16:35;5;5;
79117;PMS7003;68523;51.336;-0.846;2023-04-15T19:22:04;5;5;
79117;PMS7003;68523;51.336;-0.846;2023-04-15T19:27:34;7;5;
79117;PMS7003;68523;51.336;-0.846;2023-04-15T19:32:36;7;4;
79117;PMS7003;68523;51.336;-0.846;2023-04-15T19:38:05;3;3;
79117;PMS7003;68523;51.336;-0.846;2023-04-15T19:43:34;10;7;
79117;PMS7003;68523;51.336;-0.846;2023-04-15T19:48:36;6;6;
79117;PMS7003;68523;51.336;-0.846;2023-04-15T19:54:00;9;5;
79117;PMS7003;68523;51.336;-0.846;2023-04-15T19:59:03;9;9;
79117;PMS7003;68523;51.336;-0.846;2023-04-15T20:04:05;5;5;
79117;PMS7003;68523;51.336;-0.846;2023-04-15T20:09:34;4;4;
79117;PMS7003;68523;51.336;-0.846;2023-04-15T20:14:37;14;10;
79117;PMS7003;68523;51.336;-0.846;2023-04-15T20:20:00;8;6;
79117;PMS7003;68523;51.336;-0.846;2023-04-15T20:25:04;8;8;
79117;PMS7003;68523;51.336;-0.846;2023-04-15T20:30:34;7;7;
79117;PMS7003;68523;51.336;-0.846;2023-04-15T20:35:37;7;7;
79117;PMS7003;68523;51.336;-0.846;2023-04-15T20:41:01;5;5;
79117;PMS7003;68523;51.336;-0.846;2023-04-15T20:46:03;10;7;
79117;PMS7003;68523;51.336;-0.846;2023-04-15T20:51:32;9;9;
79117;PMS7003;68523;51.336;-0.846;2023-04-15T20:56:35;13;9;
79117;PMS7003;68523;51.336;-0.846;2023-04-15T21:01:37;11;11;
79117;PMS7003;68523;51.336;-0.846;2023-04-15T21:07:01;15;13;
79117;PMS7003;68523;51.336;-0.846;2023-04-15T21:12:03;10;10;
79117;PMS7003;68523;51.336;-0.846;2023-04-15T21:17:32;11;11;
79117;PMS7003;68523;51.336;-0.846;2023-04-15T21:22:35;19;13;
79117;PMS7003;68523;51.336;-0.846;2023-04-15T21:28:04;14;14;
79117;PMS7003;68523;51.336;-0.846;2023-04-15T21:33:33;16;16;
79117;PMS7003;68523;51.336;-0.846;2023-04-15T21:38:36;9;9;
79117;PMS7003;68523;51.336;-0.846;2023-04-15T21:44:04;13;9;
79117;PMS7003;68523;51.336;-0.846;2023-04-15T21:49:33;12;12;
79117;PMS7003;68523;51.336;-0.846;2023-04-15T21:54:36;16;16;
79117;PMS7003;68523;51.336;-0.846;2023-04-15T22:00:05;13;13;
79117;PMS7003;68523;51.336;-0.846;2023-04-15T22:05:35;25;21;
79117;PMS7003;68523;51.336;-0.846;2023-04-15T22:11:04;26;26;
79117;PMS7003;68523;51.336;-0.846;2023-04-15T22:16:33;18;18;
79117;PMS7003;68523;51.336;-0.846;2023-04-15T22:21:36;27;21;
79117;PMS7003;68523;51.336;-0.846;2023-04-15T22:27:05;19;19;
79117;PMS7003;68523;51.336;-0.846;2023-04-15T22:32:34;14;14;
79117;PMS7003;68523;51.336;-0.846;2023-04-15T22:37:37;16;16;
79117;PMS7003;68523;51.336;-0.846;2023-04-15T22:43:01;20;14;
79117;PMS7003;68523;51.336;-0.846;2023-04-15T22:48:03;19;16;
79117;PMS7003;68523;51.336;-0.846;2023-04-15T22:53:32;12;12;
79117;PMS7003;68523;51.336;-0.846;2023-04-15T22:58:35;16;14;
79117;PMS7003;68523;51.336;-0.846;2023-04-15T23:04:04;23;13;
79117;PMS7003;68523;51.336;-0.846;2023-04-15T23:09:33;17;16;
79117;PMS7003;68523;51.336;-0.846;2023-04-15T23:14:36;13;13;
79117;PMS7003;68523;51.336;-0.846;2023-04-15T23:20:05;10;10;
79117;PMS7003;68523;51.336;-0.846;2023-04-15T23:25:35;16;13;
79117;PMS7003;68523;51.336;-0.846;2023-04-15T23:30:37;13;12;
79117;PMS7003;68523;51.336;-0.846;2023-04-15T23:36:01;12;12;
79117;PMS7003;68523;51.336;-0.846;2023-04-15T23:41:03;13;13;
79117;PMS7003;68523;51.336;-0.846;2023-04-15T23:46:32;18;17;
79117;PMS7003;68523;51.336;-0.846;2023-04-15T23:51:35;18;13;
79117;PMS7003;68523;51.336;-0.846;2023-04-15T23:57:04;12;12;
